createdAt,value
2018-09-13T00:00:30.836Z,15.17
2018-09-13T00:03:05.975Z,15.40
2018-09-13T00:05:40.960Z,15.00
2018-09-13T00:08:15.981Z,14.60
2018-09-13T00:10:51.162Z,15.63
2018-09-13T00:13:25.839Z,16.10
2018-09-13T00:16:00.986Z,16.23
2018-09-13T00:18:36.084Z,15.60
2018-09-13T00:21:10.887Z,15.93
2018-09-13T00:23:46.174Z,16.60
2018-09-13T00:26:15.393Z,16.90
2018-09-13T00:28:50.126Z,17.27
2018-09-13T00:31:25.467Z,16.90
2018-09-13T00:34:01.675Z,16.57
2018-09-13T00:36:36.882Z,18.10
2018-09-13T00:39:11.703Z,17.00
2018-09-13T00:41:46.622Z,17.63
2018-09-13T00:44:21.736Z,17.37
2018-09-13T00:46:57.075Z,17.77
2018-09-13T00:49:32.038Z,17.87
2018-09-13T00:52:06.790Z,17.17
2018-09-13T00:54:42.360Z,18.00
2018-09-13T00:57:17.285Z,16.77
2018-09-13T00:59:59.091Z,17.87
2018-09-13T01:02:33.982Z,16.87
2018-09-13T01:05:08.689Z,18.30
2018-09-13T01:07:43.557Z,18.00
2018-09-13T01:10:18.494Z,18.50
2018-09-13T01:12:53.683Z,18.90
2018-09-13T01:15:29.160Z,18.80
2018-09-13T01:18:03.993Z,20.37
2018-09-13T01:20:38.796Z,20.10
2018-09-13T01:23:14.160Z,20.50
2018-09-13T01:25:49.187Z,19.50
2018-09-13T01:28:23.933Z,21.17
2018-09-13T01:30:58.818Z,20.10
2018-09-13T01:33:33.711Z,20.47
2018-09-13T01:36:08.840Z,21.63
2018-09-13T01:38:43.536Z,21.30
2018-09-13T01:41:18.589Z,23.23
2018-09-13T01:43:53.623Z,23.37
2018-09-13T01:46:28.518Z,21.47
2018-09-13T01:49:03.405Z,21.90
2018-09-13T01:51:38.388Z,23.87
2018-09-13T01:54:13.387Z,22.77
2018-09-13T01:56:48.450Z,22.30
2018-09-13T01:59:23.782Z,23.70
2018-09-13T02:01:59.320Z,24.60
2018-09-13T02:04:34.388Z,24.27
2018-09-13T02:07:09.370Z,24.80
2018-09-13T02:09:44.332Z,22.27
2018-09-13T02:12:19.329Z,26.13
2018-09-13T02:14:54.718Z,24.73
2018-09-13T02:17:29.441Z,25.40
2018-09-13T02:20:04.777Z,25.37
2018-09-13T02:22:39.854Z,25.00
2018-09-13T02:25:15.017Z,25.00
2018-09-13T02:27:49.962Z,27.83
2018-09-13T02:30:24.780Z,26.30
2018-09-13T02:32:59.778Z,28.70
2018-09-13T02:35:35.155Z,27.50
2018-09-13T02:38:10.060Z,29.53
2018-09-13T02:40:45.118Z,28.70
2018-09-13T02:43:20.446Z,28.60
2018-09-13T02:46:01.340Z,29.73
2018-09-13T02:48:36.329Z,30.37
2018-09-13T02:51:11.578Z,30.50
2018-09-13T02:53:46.527Z,31.07
2018-09-13T02:56:21.849Z,32.53
2018-09-13T02:58:56.701Z,32.83
2018-09-13T03:01:31.382Z,32.77
2018-09-13T03:04:06.625Z,30.87
2018-09-13T03:06:41.569Z,33.57
2018-09-13T03:09:16.374Z,33.20
2018-09-13T03:11:51.692Z,32.50
2018-09-13T03:14:26.572Z,32.13
2018-09-13T03:17:01.729Z,32.17
2018-09-13T03:19:36.597Z,32.50
2018-09-13T03:22:05.845Z,31.40
2018-09-13T03:24:42.540Z,34.20
2018-09-13T03:27:18.401Z,29.77
2018-09-13T03:29:53.599Z,30.00
2018-09-13T03:32:28.492Z,30.87
2018-09-13T03:35:03.735Z,29.13
2018-09-13T03:37:38.523Z,31.27
2018-09-13T03:40:13.272Z,30.00
2018-09-13T03:42:48.333Z,28.47
2018-09-13T03:45:23.743Z,30.50
2018-09-13T03:47:58.612Z,28.17
2018-09-13T03:50:33.659Z,30.73
2018-09-13T03:53:08.489Z,29.40
2018-09-13T03:55:44.049Z,30.87
2018-09-13T03:58:19.775Z,27.90
2018-09-13T04:00:54.514Z,28.83
2018-09-13T04:03:29.786Z,28.13
2018-09-13T04:06:04.771Z,27.80
2018-09-13T04:08:39.803Z,27.53
2018-09-13T04:11:14.885Z,29.83
2018-09-13T04:13:49.942Z,28.77
2018-09-13T04:16:24.853Z,30.40
2018-09-13T04:19:00.328Z,29.60
2018-09-13T04:21:36.114Z,28.87
2018-09-13T04:24:11.270Z,27.50
2018-09-13T04:26:46.809Z,30.07
2018-09-13T04:29:22.021Z,30.30
2018-09-13T04:31:57.127Z,28.70
2018-09-13T04:34:32.358Z,28.13
2018-09-13T04:37:07.583Z,29.57
2018-09-13T04:39:42.648Z,29.90
2018-09-13T04:42:17.416Z,31.53
2018-09-13T04:44:52.596Z,29.37
2018-09-13T04:47:27.772Z,29.43
2018-09-13T04:50:02.588Z,29.53
2018-09-13T04:52:38.121Z,30.67
2018-09-13T04:55:13.104Z,29.93
2018-09-13T04:57:48.505Z,30.53
2018-09-13T05:00:23.592Z,30.37
2018-09-13T05:02:58.771Z,30.60
2018-09-13T05:05:33.707Z,30.47
2018-09-13T05:08:08.467Z,29.67
2018-09-13T05:10:43.632Z,31.77
2018-09-13T05:13:18.829Z,31.00
2018-09-13T05:15:53.737Z,30.47
2018-09-13T05:18:28.687Z,30.53
2018-09-13T05:21:03.474Z,30.10
2018-09-13T05:23:38.722Z,32.40
2018-09-13T05:26:13.593Z,28.37
2018-09-13T05:28:49.565Z,30.30
2018-09-13T05:31:24.304Z,30.47
2018-09-13T05:33:59.433Z,30.07
2018-09-13T05:36:34.201Z,28.07
2018-09-13T05:39:13.869Z,30.27
2018-09-13T05:41:49.305Z,31.77
2018-09-13T05:44:24.319Z,28.10
2018-09-13T05:46:59.573Z,30.73
2018-09-13T05:49:34.597Z,29.40
2018-09-13T05:52:09.520Z,31.40
2018-09-13T05:54:44.501Z,31.90
2018-09-13T05:57:19.643Z,32.20
2018-09-13T05:59:54.606Z,32.27
2018-09-13T06:02:29.945Z,31.83
2018-09-13T06:05:05.569Z,31.80
2018-09-13T06:07:40.538Z,31.10
2018-09-13T06:10:16.256Z,32.23
2018-09-13T06:12:52.378Z,30.23
2018-09-13T06:15:27.338Z,31.10
2018-09-13T06:18:02.927Z,31.40
2018-09-13T06:20:38.657Z,29.73
2018-09-13T06:23:13.467Z,30.03
2018-09-13T06:25:48.111Z,29.70
2018-09-13T06:28:23.413Z,28.37
2018-09-13T06:30:58.501Z,27.90
2018-09-13T06:33:33.394Z,29.07
2018-09-13T06:36:08.297Z,28.50
2018-09-13T06:38:43.537Z,27.00
2018-09-13T06:41:18.142Z,28.70
2018-09-13T06:43:53.617Z,27.40
2018-09-13T06:46:28.620Z,26.57
2018-09-13T06:49:03.506Z,27.63
2018-09-13T06:51:38.308Z,25.43
2018-09-13T06:54:13.582Z,26.97
2018-09-13T06:56:48.522Z,27.30
2018-09-13T06:59:23.601Z,27.70
2018-09-13T07:01:58.493Z,26.60
2018-09-13T07:04:33.501Z,27.60
2018-09-13T07:07:08.307Z,27.53
2018-09-13T07:09:43.479Z,28.30
2018-09-13T07:12:18.357Z,28.30
2018-09-13T07:14:53.894Z,28.17
2018-09-13T07:17:29.106Z,27.90
2018-09-13T07:20:04.605Z,28.23
2018-09-13T07:22:39.853Z,28.80
2018-09-13T07:25:15.204Z,27.40
2018-09-13T07:27:50.241Z,27.87
2018-09-13T07:30:25.233Z,27.37
2018-09-13T07:33:00.373Z,27.30
2018-09-13T07:35:35.173Z,26.70
2018-09-13T07:38:10.502Z,26.60
2018-09-13T07:40:45.193Z,24.70
2018-09-13T07:43:20.412Z,25.50
2018-09-13T07:45:55.731Z,25.73
2018-09-13T07:48:31.064Z,24.93
2018-09-13T07:51:06.465Z,25.67
2018-09-13T07:53:42.066Z,22.43
2018-09-13T07:56:17.227Z,22.90
2018-09-13T07:58:52.466Z,21.70
2018-09-13T08:01:27.199Z,22.77
2018-09-13T08:04:02.251Z,22.20
2018-09-13T08:06:37.404Z,20.33
2018-09-13T08:09:13.987Z,20.63
2018-09-13T08:11:49.119Z,20.30
2018-09-13T08:14:24.456Z,20.70
2018-09-13T08:16:59.486Z,19.37
2018-09-13T08:19:34.532Z,22.03
2018-09-13T08:22:09.542Z,21.63
2018-09-13T08:24:44.438Z,20.50
2018-09-13T08:27:21.855Z,21.77
2018-09-13T08:29:57.215Z,22.77
2018-09-13T08:32:32.942Z,20.00
2018-09-13T08:35:07.994Z,21.00
2018-09-13T08:37:43.236Z,21.20
2018-09-13T08:40:18.181Z,19.40
2018-09-13T08:42:54.093Z,20.00
2018-09-13T08:45:29.273Z,20.80
2018-09-13T08:48:04.184Z,20.07
2018-09-13T08:50:38.980Z,19.80
2018-09-13T08:53:13.994Z,18.70
2018-09-13T08:55:49.352Z,21.47
2018-09-13T08:58:24.965Z,20.07
2018-09-13T09:01:00.640Z,21.83
2018-09-13T09:03:36.401Z,22.60
2018-09-13T09:06:11.327Z,20.23
2018-09-13T09:08:46.693Z,21.53
2018-09-13T09:11:22.390Z,20.90
2018-09-13T09:14:04.150Z,20.50
2018-09-13T09:16:39.957Z,20.13
2018-09-13T09:19:15.157Z,22.83
2018-09-13T09:21:51.414Z,21.00
2018-09-13T09:24:27.129Z,19.27
2018-09-13T09:27:02.471Z,19.77
2018-09-13T09:29:37.742Z,19.53
2018-09-13T09:32:12.616Z,21.50
2018-09-13T09:34:47.682Z,17.77
2018-09-13T09:37:22.753Z,22.33
2018-09-13T09:39:58.666Z,18.63
2018-09-13T09:42:34.135Z,18.47
2018-09-13T09:45:09.101Z,18.70
2018-09-13T09:47:44.164Z,13.90
2018-09-13T09:50:19.019Z,13.60
2018-09-13T09:52:54.377Z,14.77
2018-09-13T09:55:30.108Z,14.47
2018-09-13T09:58:05.753Z,14.20
2018-09-13T10:00:45.949Z,12.80
2018-09-13T10:03:20.987Z,16.30
2018-09-13T10:05:55.691Z,14.20
2018-09-13T10:08:30.591Z,12.93
2018-09-13T10:11:06.188Z,14.90
2018-09-13T10:13:41.521Z,16.13
2018-09-13T10:16:21.475Z,17.77
2018-09-13T10:19:01.577Z,18.70
2018-09-13T10:21:41.884Z,18.53
2018-09-13T10:24:22.242Z,17.80
2018-09-13T10:27:02.424Z,17.47
2018-09-13T10:29:42.907Z,16.03
2018-09-13T10:32:23.794Z,17.13
2018-09-13T10:35:03.687Z,16.40
2018-09-13T10:37:43.745Z,17.33
2018-09-13T10:40:24.012Z,20.27
2018-09-13T10:43:04.280Z,20.57
2018-09-13T10:45:45.531Z,17.60
2018-09-13T10:48:25.681Z,19.37
2018-09-13T10:51:06.569Z,19.77
2018-09-13T10:53:50.771Z,22.67
2018-09-13T10:56:25.656Z,20.83
2018-09-13T10:59:00.588Z,16.40
2018-09-13T11:01:35.595Z,19.33
2018-09-13T11:04:11.555Z,18.20
2018-09-13T11:06:46.611Z,23.40
2018-09-13T11:09:21.788Z,20.87
2018-09-13T11:11:56.713Z,24.30
2018-09-13T11:14:38.305Z,28.27
2018-09-13T11:17:13.320Z,25.00
2018-09-13T11:19:48.884Z,29.30
2018-09-13T11:22:23.971Z,23.90
2018-09-13T11:24:58.919Z,27.97
2018-09-13T11:27:34.262Z,31.77
2018-09-13T11:30:15.926Z,29.10
2018-09-13T11:32:51.279Z,31.47
2018-09-13T11:35:26.355Z,26.27
2018-09-13T11:38:02.185Z,28.33
2018-09-13T11:40:37.359Z,28.00
2018-09-13T11:43:16.902Z,31.90
2018-09-13T11:45:52.857Z,32.10
2018-09-13T11:48:33.145Z,33.20
2018-09-13T11:51:08.253Z,31.30
2018-09-13T11:53:43.280Z,34.97
2018-09-13T11:56:18.449Z,33.50
2018-09-13T11:58:53.733Z,36.40
2018-09-13T12:01:29.128Z,33.67
2018-09-13T12:04:04.380Z,34.87
2018-09-13T12:06:39.656Z,33.60
2018-09-13T12:09:15.803Z,38.10
2018-09-13T12:11:50.651Z,34.60
2018-09-13T12:14:25.513Z,35.50
2018-09-13T12:17:00.740Z,35.60
2018-09-13T12:19:35.706Z,35.87
2018-09-13T12:22:10.752Z,35.80
2018-09-13T12:24:40.577Z,36.47
2018-09-13T12:27:16.322Z,36.57
2018-09-13T12:29:51.253Z,33.17
2018-09-13T12:32:26.398Z,35.23
2018-09-13T12:35:01.505Z,34.77
2018-09-13T12:37:36.465Z,35.00
2018-09-13T12:40:11.837Z,32.27
2018-09-13T12:42:46.680Z,30.20
2018-09-13T12:45:21.885Z,33.30
2018-09-13T12:47:56.746Z,31.70
2018-09-13T12:50:31.682Z,31.33
2018-09-13T12:53:06.780Z,30.80
2018-09-13T12:55:46.948Z,31.70
2018-09-13T12:58:23.981Z,35.10
2018-09-13T13:00:58.711Z,32.30
2018-09-13T13:03:33.872Z,31.70
2018-09-13T13:06:09.415Z,32.20
2018-09-13T13:08:46.541Z,30.67
2018-09-13T13:11:21.517Z,31.57
2018-09-13T13:13:56.765Z,26.93
2018-09-13T13:16:32.769Z,29.23
2018-09-13T13:19:08.168Z,31.30
2018-09-13T13:21:43.316Z,29.60
2018-09-13T13:24:18.786Z,26.63
2018-09-13T13:26:53.941Z,27.80
2018-09-13T13:29:29.223Z,28.80
2018-09-13T13:32:04.815Z,28.50
2018-09-13T13:34:39.920Z,28.27
2018-09-13T13:37:15.141Z,26.07
2018-09-13T13:39:50.837Z,27.20
2018-09-13T13:42:26.290Z,28.60
2018-09-13T13:45:01.473Z,26.33
2018-09-13T13:47:36.753Z,27.37
2018-09-13T13:50:11.610Z,27.47
2018-09-13T13:52:47.529Z,26.60
2018-09-13T13:55:23.745Z,27.97
2018-09-13T13:57:59.006Z,27.23
2018-09-13T14:00:33.936Z,27.23
2018-09-13T14:03:09.078Z,27.70
2018-09-13T14:05:43.957Z,26.37
2018-09-13T14:08:19.265Z,25.53
2018-09-13T14:10:54.401Z,24.07
2018-09-13T14:13:29.527Z,25.57
2018-09-13T14:16:04.858Z,20.73
2018-09-13T14:18:39.729Z,22.27
2018-09-13T14:21:14.682Z,20.70
2018-09-13T14:23:50.454Z,19.40
2018-09-13T14:26:25.560Z,20.20
2018-09-13T14:29:00.524Z,20.63
2018-09-13T14:31:35.798Z,21.40
2018-09-13T14:34:11.017Z,23.10
2018-09-13T14:36:46.570Z,22.87
2018-09-13T14:39:21.475Z,22.10
2018-09-13T14:41:56.321Z,20.50
2018-09-13T14:44:31.171Z,19.90
2018-09-13T14:47:06.588Z,19.93
2018-09-13T14:49:41.627Z,20.40
2018-09-13T14:52:17.304Z,19.53
2018-09-13T14:54:52.280Z,19.10
2018-09-13T14:57:27.285Z,19.33
2018-09-13T15:00:02.808Z,19.60
2018-09-13T15:02:32.111Z,19.97
2018-09-13T15:05:07.423Z,21.00
2018-09-13T15:07:42.256Z,18.93
2018-09-13T15:10:17.931Z,18.77
2018-09-13T15:12:53.111Z,20.30
2018-09-13T15:15:28.619Z,20.10
2018-09-13T15:18:03.774Z,19.73
2018-09-13T15:20:39.043Z,18.00
2018-09-13T15:23:14.046Z,18.47
2018-09-13T15:25:53.014Z,16.27
2018-09-13T15:28:28.269Z,16.60
2018-09-13T15:31:03.459Z,16.93
2018-09-13T15:33:38.754Z,15.47
2018-09-13T15:36:13.924Z,16.03
2018-09-13T15:38:48.925Z,17.30
2018-09-13T15:41:24.310Z,17.60
2018-09-13T15:43:59.606Z,18.00
2018-09-13T15:46:34.567Z,17.17
2018-09-13T15:49:09.703Z,18.10
2018-09-13T15:51:44.803Z,16.33
2018-09-13T15:54:20.359Z,17.37
2018-09-13T15:56:55.634Z,17.60
2018-09-13T15:59:30.959Z,16.50
2018-09-13T16:02:06.153Z,17.07
2018-09-13T16:04:36.169Z,15.87
2018-09-13T16:07:11.190Z,15.77
2018-09-13T16:09:45.926Z,16.47
2018-09-13T16:12:21.029Z,16.53
2018-09-13T16:14:56.228Z,15.40
2018-09-13T16:17:31.014Z,14.50
2018-09-13T16:20:07.218Z,14.13
2018-09-13T16:22:42.502Z,13.37
2018-09-13T16:25:17.344Z,13.80
2018-09-13T16:27:52.678Z,12.70
2018-09-13T16:30:27.901Z,12.03
2018-09-13T16:32:57.965Z,12.47
2018-09-13T16:35:32.841Z,11.47
2018-09-13T16:38:13.361Z,11.80
2018-09-13T16:41:53.291Z,12.33
2018-09-13T16:44:33.709Z,12.70
2018-09-13T16:47:14.855Z,11.27
2018-09-13T16:49:49.998Z,10.83
2018-09-13T16:52:25.548Z,10.83
2018-09-13T16:55:00.484Z,9.70
2018-09-13T16:57:30.501Z,10.37
2018-09-13T17:00:05.985Z,10.17
2018-09-13T17:02:41.067Z,10.77
2018-09-13T17:05:16.318Z,10.57
2018-09-13T17:07:51.353Z,9.30
2018-09-13T17:10:27.471Z,11.40
2018-09-13T17:13:07.701Z,10.20
2018-09-13T17:15:43.025Z,11.30
2018-09-13T17:18:17.824Z,12.83
2018-09-13T17:20:52.909Z,12.77
2018-09-13T17:23:28.455Z,12.70
2018-09-13T17:25:58.494Z,13.97
2018-09-13T17:28:33.240Z,14.07
2018-09-13T17:31:08.685Z,13.27
2018-09-13T17:33:43.809Z,14.67
2018-09-13T17:36:18.978Z,14.80
2018-09-13T17:38:54.546Z,15.20
2018-09-13T17:41:29.455Z,14.90
2018-09-13T17:44:04.778Z,13.93
2018-09-13T17:46:43.551Z,14.53
2018-09-13T17:49:19.022Z,15.27
2018-09-13T17:51:54.091Z,16.50
2018-09-13T17:54:29.589Z,18.23
2018-09-13T17:57:04.556Z,17.00
2018-09-13T17:59:39.580Z,17.00
2018-09-13T18:02:14.428Z,17.57
2018-09-13T18:04:49.325Z,17.10
2018-09-13T18:07:24.671Z,18.40
2018-09-13T18:09:59.730Z,17.70
2018-09-13T18:12:29.345Z,17.90
2018-09-13T18:14:58.852Z,20.07
2018-09-13T18:17:29.336Z,19.93
2018-09-13T18:20:04.524Z,17.93
2018-09-13T18:22:39.529Z,19.27
2018-09-13T18:25:15.507Z,17.73
2018-09-13T18:27:50.569Z,19.90
2018-09-13T18:30:25.590Z,19.70
2018-09-13T18:33:00.666Z,19.30
2018-09-13T18:35:35.593Z,19.37
2018-09-13T18:38:10.475Z,18.80
2018-09-13T18:40:45.492Z,19.73
2018-09-13T18:43:20.474Z,19.77
2018-09-13T18:45:55.681Z,19.80
2018-09-13T18:48:25.098Z,19.17
2018-09-13T18:50:55.080Z,18.70
2018-09-13T18:53:30.826Z,18.70
2018-09-13T18:56:06.662Z,19.60
2018-09-13T18:58:41.730Z,21.30
2018-09-13T19:01:11.248Z,18.77
2018-09-13T19:03:46.866Z,19.60
2018-09-13T19:06:21.938Z,18.47
2018-09-13T19:08:57.012Z,20.07
2018-09-13T19:11:26.673Z,20.37
2018-09-13T19:14:01.910Z,20.03
2018-09-13T19:16:37.050Z,20.93
2018-09-13T19:19:12.292Z,22.60
2018-09-13T19:21:47.182Z,20.37
2018-09-13T19:24:32.314Z,20.30
2018-09-13T19:27:07.473Z,20.67
2018-09-13T19:29:42.881Z,20.90
2018-09-13T19:32:17.694Z,20.97
2018-09-13T19:34:52.690Z,20.57
2018-09-13T19:37:27.604Z,20.77
2018-09-13T19:40:02.488Z,21.20
2018-09-13T19:42:37.357Z,22.50
2018-09-13T19:45:12.307Z,21.10
2018-09-13T19:47:47.506Z,22.00
2018-09-13T19:50:23.227Z,22.10
2018-09-13T19:52:58.256Z,23.10
2018-09-13T19:55:33.593Z,21.07
2018-09-13T19:58:08.961Z,22.30
2018-09-13T20:00:44.307Z,19.00
2018-09-13T20:03:19.948Z,20.97
2018-09-13T20:05:55.479Z,20.47
2018-09-13T20:08:30.756Z,21.33
2018-09-13T20:11:06.014Z,21.23
2018-09-13T20:13:41.006Z,21.97
2018-09-13T20:16:16.681Z,20.70
2018-09-13T20:18:51.714Z,21.90
2018-09-13T20:21:26.904Z,21.97
2018-09-13T20:24:02.105Z,21.60
2018-09-13T20:26:37.286Z,21.10
2018-09-13T20:29:12.486Z,21.90
2018-09-13T20:31:47.713Z,22.23
2018-09-13T20:34:23.023Z,20.80
2018-09-13T20:37:04.960Z,20.97
2018-09-13T20:39:40.226Z,22.47
2018-09-13T20:42:15.410Z,22.80
2018-09-13T20:44:50.709Z,21.40
2018-09-13T20:47:25.792Z,22.30
2018-09-13T20:50:00.873Z,21.93
2018-09-13T20:52:35.912Z,21.70
2018-09-13T20:55:11.855Z,22.80
2018-09-13T20:57:46.892Z,21.87
2018-09-13T21:00:22.011Z,22.67
2018-09-13T21:02:51.637Z,21.90
2018-09-13T21:05:26.701Z,21.83
2018-09-13T21:08:02.118Z,21.43
2018-09-13T21:10:37.073Z,23.17
2018-09-13T21:13:12.123Z,21.97
2018-09-13T21:15:47.321Z,22.07
2018-09-13T21:18:22.727Z,22.30
2018-09-13T21:20:57.828Z,22.17
2018-09-13T21:23:33.201Z,22.07
2018-09-13T21:26:08.494Z,20.90
2018-09-13T21:28:43.287Z,21.03
2018-09-13T21:31:18.667Z,23.07
2018-09-13T21:33:53.781Z,21.60
2018-09-13T21:36:28.837Z,21.90
2018-09-13T21:39:06.318Z,22.30
2018-09-13T21:41:41.273Z,22.13
2018-09-13T21:44:16.283Z,23.90
2018-09-13T21:46:52.616Z,22.93
2018-09-13T21:49:27.668Z,22.13
2018-09-13T21:52:02.930Z,22.40
2018-09-13T21:54:38.374Z,22.60
2018-09-13T21:57:13.533Z,21.87
2018-09-13T21:59:42.727Z,21.20
2018-09-13T22:02:18.478Z,21.70
2018-09-13T22:04:53.378Z,19.13
2018-09-13T22:07:28.912Z,17.87
2018-09-13T22:10:07.960Z,16.03
2018-09-13T22:12:42.852Z,14.83
2018-09-13T22:15:17.872Z,13.53
2018-09-13T22:17:53.032Z,12.23
2018-09-13T22:20:27.849Z,11.93
2018-09-13T22:23:03.197Z,11.07
2018-09-13T22:25:38.451Z,10.83
2018-09-13T22:28:13.716Z,10.70
2018-09-13T22:30:48.344Z,9.73
2018-09-13T22:33:23.373Z,10.20
2018-09-13T22:35:58.915Z,9.90
2018-09-13T22:38:33.771Z,10.03
2018-09-13T22:41:08.749Z,9.40
2018-09-13T22:43:48.953Z,9.60
2018-09-13T22:46:24.738Z,8.70
2018-09-13T22:48:59.818Z,9.03
2018-09-13T22:51:35.369Z,8.50
2018-09-13T22:54:10.491Z,8.23
2018-09-13T22:56:45.923Z,7.97
2018-09-13T22:59:21.016Z,7.90
2018-09-13T23:01:56.020Z,7.70
2018-09-13T23:04:31.112Z,8.03
2018-09-13T23:07:06.267Z,7.40
2018-09-13T23:09:41.462Z,7.13
2018-09-13T23:12:16.222Z,6.30
2018-09-13T23:14:51.282Z,7.50
2018-09-13T23:17:26.152Z,6.93
2018-09-13T23:20:01.403Z,6.77
2018-09-13T23:22:36.306Z,6.60
2018-09-13T23:25:11.233Z,6.67
2018-09-13T23:27:46.171Z,6.87
2018-09-13T23:30:21.412Z,6.77
2018-09-13T23:32:56.493Z,6.00
2018-09-13T23:35:34.253Z,6.23
2018-09-13T23:38:09.126Z,6.80
2018-09-13T23:40:44.079Z,6.53
2018-09-13T23:43:18.877Z,6.70
2018-09-13T23:45:53.926Z,6.20
2018-09-13T23:48:28.573Z,6.90
2018-09-13T23:51:03.823Z,6.50
2018-09-13T23:53:38.678Z,6.37
2018-09-13T23:56:13.540Z,7.10
2018-09-13T23:58:48.545Z,6.90
